Placitas, New Mexico
Current Conditions -  °F | °C
As of 7:52 AM on Friday 31 Oct 2014 (Local Time) from KABQ Reporting Station
Scattered Clouds Scattered Clouds  
Wind Chill: 52°   Ceiling: Unl
Heat Index: 52°   Visibility: 10mi
Dew Point: 27°   Wind: 14mph
Humidity: 38%   Direction: 80°E
Pressure: 30.36"   Gusts: NA
Location:  35.31°N, 106.42°W
Report Text: KABQ 311352Z 08012KT 10SM FEW180 SCT240 11/M03 A3036 RMK AO2 SLP234 T01111028
Loading
Personal Weather Stations






























Interactive Weather Map
Tropical Storm Tracking
New forecast layout! Learn more

10-Day Weather Forecast

Advertisements
Track Severe Weather on mobile